createdAt,value
2023-05-16T00:16:32.133Z,4.97
2023-05-16T00:36:33.660Z,5.50
2023-05-16T00:56:35.490Z,5.68
2023-05-16T01:16:37.114Z,5.45
2023-05-16T01:36:38.849Z,5.32
2023-05-16T01:56:41.165Z,4.25
2023-05-16T02:16:43.024Z,4.25
2023-05-16T02:36:44.501Z,4.00
2023-05-16T02:56:46.270Z,4.40
2023-05-16T03:16:49.993Z,4.93
2023-05-16T03:36:51.700Z,5.20
2023-05-16T03:56:53.143Z,5.30
2023-05-16T04:16:54.819Z,4.93
2023-05-16T04:36:56.352Z,5.82
2023-05-16T04:56:58.176Z,4.95
2023-05-16T05:16:59.679Z,5.18
2023-05-16T05:37:01.692Z,5.22
2023-05-16T05:57:03.242Z,5.25
2023-05-16T06:17:04.992Z,5.53
2023-05-16T06:37:06.539Z,6.28
2023-05-16T06:57:08.660Z,7.25
2023-05-16T07:17:10.414Z,8.73
2023-05-16T07:37:12.461Z,9.30
2023-05-16T07:57:14.009Z,8.35
2023-05-16T08:17:15.714Z,10.63
2023-05-16T08:37:17.470Z,12.40
2023-05-16T08:57:19.379Z,11.18
2023-05-16T09:17:28.771Z,9.95
2023-05-16T09:37:40.947Z,10.85
2023-05-16T09:57:43.413Z,10.77
2023-05-16T10:17:45.257Z,11.75
2023-05-16T10:37:46.966Z,13.25
2023-05-16T10:57:48.759Z,12.05
2023-05-16T11:17:50.577Z,15.43
2023-05-16T11:37:54.898Z,16.65
2023-05-16T11:57:56.420Z,17.40
2023-05-16T12:17:58.760Z,14.98
2023-05-16T12:38:00.501Z,15.73
2023-05-16T12:58:02.429Z,16.83
2023-05-16T13:18:04.376Z,16.92
2023-05-16T13:38:06.327Z,16.83
2023-05-16T13:58:07.855Z,16.08
2023-05-16T14:18:09.662Z,15.43
2023-05-16T14:38:11.293Z,14.60
2023-05-16T14:58:13.011Z,13.43
2023-05-16T15:18:14.730Z,7.55
2023-05-16T15:38:16.635Z,8.60
2023-05-16T15:58:18.937Z,8.68
2023-05-16T16:18:21.824Z,11.85
2023-05-16T16:38:24.876Z,11.85
2023-05-16T16:58:26.913Z,13.05
2023-05-16T17:18:28.510Z,13.65
2023-05-16T17:59:14.520Z,12.02
2023-05-16T18:19:17.146Z,10.93
2023-05-16T18:39:19.001Z,13.20
2023-05-16T18:59:20.810Z,11.65
2023-05-16T19:19:22.735Z,13.20
2023-05-16T19:39:27.131Z,11.93
2023-05-16T19:59:31.888Z,17.92
2023-05-16T20:19:34.625Z,15.82
2023-05-16T20:39:36.907Z,17.83
2023-05-16T20:59:38.681Z,17.42
2023-05-16T21:19:40.297Z,14.02
2023-05-16T21:39:41.971Z,15.18
2023-05-16T21:59:43.686Z,13.38
2023-05-16T22:19:45.377Z,12.10
2023-05-16T22:39:47.089Z,11.13
2023-05-16T22:59:48.630Z,7.78
2023-05-16T23:19:50.348Z,4.93
2023-05-16T23:39:51.996Z,5.93
2023-05-16T23:59:53.594Z,4.70
